createdAt,value
2018-12-21T00:00:45.051Z,1.40
2018-12-21T00:03:12.757Z,2.03
2018-12-21T00:05:40.296Z,1.90
2018-12-21T00:08:07.830Z,1.77
2018-12-21T00:10:35.358Z,1.50
2018-12-21T00:13:03.040Z,1.70
2018-12-21T00:15:30.667Z,1.83
2018-12-21T00:17:58.215Z,1.80
2018-12-21T00:20:25.741Z,1.60
2018-12-21T00:22:53.243Z,1.47
2018-12-21T00:25:20.663Z,1.97
2018-12-21T00:27:48.175Z,1.50
2018-12-21T00:30:21.649Z,1.63
2018-12-21T00:32:55.522Z,1.80
2018-12-21T00:35:28.840Z,1.53
2018-12-21T00:38:02.186Z,1.90
2018-12-21T00:40:35.546Z,2.07
2018-12-21T00:43:09.034Z,1.77
2018-12-21T00:45:42.571Z,2.13
2018-12-21T00:48:10.127Z,1.73
2018-12-21T00:50:37.836Z,1.93
2018-12-21T00:53:05.386Z,2.10
2018-12-21T00:55:32.954Z,1.97
2018-12-21T00:58:00.456Z,1.80
2018-12-21T01:00:27.972Z,1.57
2018-12-21T01:02:55.609Z,1.43
2018-12-21T01:05:23.174Z,1.93
2018-12-21T01:07:50.791Z,1.50
2018-12-21T01:10:18.416Z,1.63
2018-12-21T01:12:45.961Z,1.30
2018-12-21T01:15:13.594Z,1.93
2018-12-21T01:17:41.326Z,1.53
2018-12-21T01:20:08.920Z,1.90
2018-12-21T01:22:37.265Z,1.70
2018-12-21T01:25:05.128Z,1.80
2018-12-21T01:27:32.677Z,1.70
2018-12-21T01:30:00.258Z,1.77
2018-12-21T01:32:27.733Z,1.50
2018-12-21T01:34:55.293Z,1.60
2018-12-21T01:37:23.228Z,1.80
2018-12-21T01:39:50.695Z,1.80
2018-12-21T01:42:18.149Z,2.17
2018-12-21T01:44:45.615Z,2.03
2018-12-21T01:47:13.069Z,2.17
2018-12-21T01:49:40.527Z,2.10
2018-12-21T01:52:08.065Z,2.33
2018-12-21T01:54:35.683Z,2.00
2018-12-21T01:57:03.355Z,1.73
2018-12-21T01:59:30.958Z,1.70
2018-12-21T02:01:58.446Z,1.97
2018-12-21T02:04:26.036Z,1.83
2018-12-21T02:06:53.647Z,1.83
2018-12-21T02:09:21.259Z,1.70
2018-12-21T02:11:48.715Z,1.70
2018-12-21T02:14:16.171Z,2.00
2018-12-21T02:16:43.671Z,1.80
2018-12-21T02:19:11.246Z,1.97
2018-12-21T02:21:38.741Z,1.40
2018-12-21T02:24:06.128Z,1.50
2018-12-21T02:26:33.646Z,2.27
2018-12-21T02:29:01.230Z,2.13
2018-12-21T02:31:28.741Z,1.40
2018-12-21T02:33:56.285Z,1.60
2018-12-21T02:36:23.751Z,1.57
2018-12-21T02:38:51.287Z,1.83
2018-12-21T02:41:18.844Z,1.90
2018-12-21T02:43:46.439Z,1.90
2018-12-21T02:46:13.911Z,1.80
2018-12-21T02:48:41.391Z,1.50
2018-12-21T02:51:08.900Z,1.77
2018-12-21T02:53:36.392Z,2.10
2018-12-21T02:56:03.892Z,1.60
2018-12-21T02:58:31.416Z,1.60
2018-12-21T03:00:58.944Z,1.63
2018-12-21T03:03:26.464Z,1.87
2018-12-21T03:05:53.898Z,1.57
2018-12-21T03:08:21.367Z,1.63
2018-12-21T03:10:48.843Z,1.60
2018-12-21T03:13:16.321Z,1.67
2018-12-21T03:15:43.795Z,2.00
2018-12-21T03:18:11.298Z,1.43
2018-12-21T03:20:38.791Z,1.53
2018-12-21T03:23:06.299Z,1.27
2018-12-21T03:25:33.769Z,1.80
2018-12-21T03:28:01.294Z,1.70
2018-12-21T03:30:28.912Z,1.90
2018-12-21T03:32:56.501Z,2.40
2018-12-21T03:35:24.102Z,2.07
2018-12-21T03:37:51.587Z,1.57
2018-12-21T03:40:19.195Z,1.60
2018-12-21T03:42:46.655Z,1.67
2018-12-21T03:45:14.276Z,1.20
2018-12-21T03:47:41.738Z,1.17
2018-12-21T03:50:09.348Z,1.00
2018-12-21T03:52:36.975Z,1.40
2018-12-21T03:55:05.007Z,1.60
2018-12-21T03:57:32.451Z,1.60
2018-12-21T04:00:00.040Z,1.20
2018-12-21T04:02:27.605Z,1.33
2018-12-21T04:04:55.060Z,1.40
2018-12-21T04:07:22.512Z,1.43
2018-12-21T04:09:49.985Z,1.37
2018-12-21T04:12:17.612Z,1.70
2018-12-21T04:14:45.097Z,0.90
2018-12-21T04:17:12.572Z,1.40
2018-12-21T04:19:40.033Z,1.37
2018-12-21T04:22:07.551Z,1.50
2018-12-21T04:24:35.027Z,0.93
2018-12-21T04:27:02.507Z,1.30
2018-12-21T04:29:29.999Z,1.30
2018-12-21T04:31:57.542Z,1.20
2018-12-21T04:34:25.081Z,1.30
2018-12-21T04:36:52.670Z,1.73
2018-12-21T04:39:20.160Z,1.50
2018-12-21T04:41:47.660Z,1.60
2018-12-21T04:44:15.208Z,1.30
2018-12-21T04:46:43.097Z,0.67
2018-12-21T04:49:10.549Z,1.20
2018-12-21T04:51:38.182Z,1.30
2018-12-21T04:54:05.649Z,1.60
2018-12-21T04:56:33.123Z,0.77
2018-12-21T04:59:00.561Z,1.40
2018-12-21T05:01:28.032Z,1.10
2018-12-21T05:03:55.508Z,1.03
2018-12-21T05:06:23.109Z,1.13
2018-12-21T05:08:50.584Z,0.90
2018-12-21T05:11:18.111Z,0.90
2018-12-21T05:13:45.784Z,0.73
2018-12-21T05:16:13.408Z,0.90
2018-12-21T05:18:40.884Z,0.73
2018-12-21T05:21:08.346Z,0.90
2018-12-21T05:23:35.926Z,0.90
2018-12-21T05:26:03.500Z,0.50
2018-12-21T05:28:30.954Z,0.57
2018-12-21T05:30:58.407Z,0.50
2018-12-21T05:33:25.857Z,0.63
2018-12-21T05:35:53.314Z,0.50
2018-12-21T05:38:20.788Z,0.70
2018-12-21T05:40:48.244Z,0.87
2018-12-21T05:43:15.706Z,0.50
2018-12-21T05:45:43.190Z,0.80
2018-12-21T05:48:10.780Z,0.80
2018-12-21T05:50:38.235Z,0.63
2018-12-21T05:53:05.619Z,0.70
2018-12-21T05:55:33.152Z,0.23
2018-12-21T05:58:00.635Z,0.40
2018-12-21T06:00:28.142Z,0.50
2018-12-21T06:02:55.617Z,0.60
2018-12-21T06:05:23.157Z,0.63
2018-12-21T06:07:50.657Z,0.53
2018-12-21T06:10:18.141Z,0.23
2018-12-21T06:12:45.637Z,0.40
2018-12-21T06:15:13.127Z,0.50
2018-12-21T06:17:40.580Z,0.60
2018-12-21T06:20:08.198Z,0.60
2018-12-21T06:22:35.703Z,0.80
2018-12-21T06:25:03.484Z,0.57
2018-12-21T06:27:30.979Z,0.60
2018-12-21T06:29:58.478Z,0.60
2018-12-21T06:32:25.959Z,0.60
2018-12-21T06:34:53.441Z,0.93
2018-12-21T06:37:21.177Z,0.70
2018-12-21T06:39:48.989Z,0.70
2018-12-21T06:42:16.435Z,0.70
2018-12-21T06:44:43.895Z,0.17
2018-12-21T06:47:11.375Z,0.67
2018-12-21T06:49:38.873Z,0.47
2018-12-21T06:52:06.368Z,0.43
2018-12-21T06:54:33.828Z,0.20
2018-12-21T06:57:01.322Z,0.40
2018-12-21T06:59:28.821Z,0.30
2018-12-21T07:01:56.391Z,0.30
2018-12-21T07:04:23.854Z,0.40
2018-12-21T07:06:51.311Z,0.40
2018-12-21T07:09:18.847Z,0.30
2018-12-21T07:11:46.560Z,0.20
2018-12-21T07:14:14.057Z,0.20
2018-12-21T07:16:41.621Z,0.30
2018-12-21T07:19:09.063Z,0.40
2018-12-21T07:21:36.587Z,0.40
2018-12-21T07:24:04.089Z,0.80
2018-12-21T07:26:31.563Z,0.50
2018-12-21T07:28:58.987Z,0.40
2018-12-21T07:31:26.483Z,0.43
2018-12-21T07:33:54.141Z,0.50
2018-12-21T07:36:21.593Z,0.60
2018-12-21T07:38:49.118Z,0.60
2018-12-21T07:41:16.587Z,0.30
2018-12-21T07:43:44.096Z,0.57
2018-12-21T07:46:13.226Z,0.87
2018-12-21T07:48:41.109Z,0.43
2018-12-21T07:51:08.775Z,0.50
2018-12-21T07:53:36.295Z,0.40
2018-12-21T07:56:03.957Z,0.47
2018-12-21T07:58:31.419Z,0.60
2018-12-21T08:00:58.870Z,0.80
2018-12-21T08:03:26.326Z,0.67
2018-12-21T08:05:53.812Z,0.87
2018-12-21T08:08:21.292Z,0.70
2018-12-21T08:10:48.812Z,0.80
2018-12-21T08:13:16.284Z,1.00
2018-12-21T08:15:43.759Z,0.67
2018-12-21T08:18:11.189Z,1.13
2018-12-21T08:20:38.730Z,1.10
2018-12-21T08:23:06.319Z,0.93
2018-12-21T08:25:33.773Z,0.90
2018-12-21T08:28:01.305Z,0.90
2018-12-21T08:30:28.844Z,1.17
2018-12-21T08:32:56.311Z,1.00
2018-12-21T08:35:23.759Z,1.13
2018-12-21T08:37:51.231Z,0.97
2018-12-21T08:40:18.667Z,1.20
2018-12-21T08:42:46.023Z,1.20
2018-12-21T08:45:13.457Z,0.83
2018-12-21T08:47:41.059Z,0.87
2018-12-21T08:50:09.991Z,0.60
2018-12-21T08:52:37.535Z,1.00
2018-12-21T08:55:05.715Z,1.10
2018-12-21T08:57:33.195Z,1.40
2018-12-21T09:00:00.717Z,1.37
2018-12-21T09:02:28.163Z,1.60
2018-12-21T09:04:55.639Z,0.40
2018-12-21T09:07:23.109Z,0.93
2018-12-21T09:09:50.575Z,1.30
2018-12-21T09:12:18.068Z,1.30
2018-12-21T09:14:45.532Z,1.30
2018-12-21T09:17:13.087Z,1.40
2018-12-21T09:19:40.568Z,1.53
2018-12-21T09:22:08.031Z,1.07
2018-12-21T09:24:35.490Z,1.30
2018-12-21T09:27:03.173Z,1.43
2018-12-21T09:29:30.630Z,1.20
2018-12-21T09:32:05.081Z,1.27
2018-12-21T09:34:27.886Z,0.70
2018-12-21T09:36:55.344Z,0.50
2018-12-21T09:39:22.814Z,1.20
2018-12-21T09:41:50.256Z,0.90
2018-12-21T09:44:17.760Z,0.97
2018-12-21T09:46:45.616Z,1.03
2018-12-21T09:49:13.144Z,1.30
2018-12-21T09:51:40.612Z,1.27
2018-12-21T09:54:10.084Z,1.40
2018-12-21T09:56:37.605Z,1.90
2018-12-21T09:59:05.105Z,1.20
2018-12-21T10:01:32.589Z,1.67
2018-12-21T10:04:00.148Z,1.57
2018-12-21T10:06:28.594Z,1.80
2018-12-21T10:08:56.090Z,1.67
2018-12-21T10:11:23.533Z,1.77
2018-12-21T10:13:51.108Z,1.30
2018-12-21T10:16:18.532Z,1.60
2018-12-21T10:18:45.965Z,1.03
2018-12-21T10:21:13.418Z,1.20
2018-12-21T10:23:40.908Z,1.00
2018-12-21T10:26:08.380Z,0.90
2018-12-21T10:28:35.747Z,0.60
2018-12-21T10:31:03.344Z,0.63
2018-12-21T10:33:30.799Z,0.40
2018-12-21T10:35:58.291Z,0.60
2018-12-21T10:38:25.917Z,0.53
2018-12-21T10:40:53.435Z,0.70
2018-12-21T10:43:20.907Z,0.90
2018-12-21T10:45:48.391Z,0.70
2018-12-21T10:48:15.903Z,0.40
2018-12-21T10:50:43.377Z,0.40
2018-12-21T10:53:10.827Z,0.43
2018-12-21T10:55:38.271Z,0.47
2018-12-21T10:58:05.745Z,0.70
2018-12-21T11:00:33.240Z,0.50
2018-12-21T11:03:00.755Z,0.40
2018-12-21T11:05:28.206Z,0.47
2018-12-21T11:07:55.679Z,0.53
2018-12-21T11:10:23.193Z,0.53
2018-12-21T11:12:50.639Z,0.57
2018-12-21T11:15:18.087Z,0.43
2018-12-21T11:17:45.542Z,0.23
2018-12-21T11:20:13.004Z,0.40
2018-12-21T11:22:40.440Z,0.60
2018-12-21T11:25:09.816Z,0.80
2018-12-21T11:27:37.664Z,0.80
2018-12-21T11:30:05.854Z,1.00
2018-12-21T11:32:33.325Z,1.13
2018-12-21T11:35:00.794Z,1.10
2018-12-21T11:37:28.251Z,1.40
2018-12-21T11:39:55.750Z,0.70
2018-12-21T11:42:23.353Z,0.70
2018-12-21T11:44:50.813Z,0.90
2018-12-21T11:47:18.271Z,0.57
2018-12-21T11:49:46.645Z,0.60
2018-12-21T11:52:14.152Z,0.50
2018-12-21T11:54:44.421Z,0.53
2018-12-21T11:57:11.016Z,0.40
2018-12-21T11:59:44.800Z,0.60
2018-12-21T12:02:08.811Z,0.40
2018-12-21T12:04:36.252Z,0.33
2018-12-21T12:07:03.687Z,0.40
2018-12-21T12:09:31.127Z,0.50
2018-12-21T12:11:58.567Z,0.60
2018-12-21T12:14:26.053Z,0.10
2018-12-21T12:16:53.545Z,0.70
2018-12-21T12:19:21.758Z,0.73
2018-12-21T12:21:49.236Z,0.50
2018-12-21T12:24:16.771Z,0.30
2018-12-21T12:26:44.483Z,0.40
2018-12-21T12:29:12.249Z,0.40
2018-12-21T12:31:39.707Z,0.20
2018-12-21T12:34:07.169Z,0.20
2018-12-21T12:36:34.808Z,0.23
2018-12-21T12:39:02.701Z,0.30
2018-12-21T12:41:30.155Z,0.30
2018-12-21T12:43:57.663Z,0.30
2018-12-21T12:46:25.159Z,0.50
2018-12-21T12:48:52.717Z,0.57
2018-12-21T12:51:20.132Z,0.60
2018-12-21T12:53:47.647Z,0.70
2018-12-21T12:56:15.092Z,1.43
2018-12-21T12:58:42.533Z,0.80
2018-12-21T13:01:10.119Z,0.30
2018-12-21T13:03:37.603Z,0.50
2018-12-21T13:06:05.083Z,0.40
2018-12-21T13:08:32.543Z,0.40
2018-12-21T13:10:59.993Z,0.43
2018-12-21T13:13:27.331Z,0.90
2018-12-21T13:15:54.811Z,0.70
2018-12-21T13:18:22.270Z,0.50
2018-12-21T13:20:49.799Z,0.60
2018-12-21T13:23:17.335Z,0.60
2018-12-21T13:25:44.807Z,0.40
2018-12-21T13:28:12.357Z,0.90
2018-12-21T13:30:39.911Z,1.00
2018-12-21T13:33:07.428Z,0.90
2018-12-21T13:35:34.988Z,0.87
2018-12-21T13:38:02.395Z,0.77
2018-12-21T13:40:29.849Z,0.63
2018-12-21T13:42:57.313Z,0.67
2018-12-21T13:45:24.763Z,0.60
2018-12-21T13:47:52.203Z,0.50
2018-12-21T13:50:19.679Z,0.80
2018-12-21T13:52:47.147Z,0.60
2018-12-21T13:55:20.297Z,0.70
2018-12-21T13:57:44.098Z,0.50
2018-12-21T14:00:11.577Z,0.40
2018-12-21T14:02:39.023Z,0.57
2018-12-21T14:05:07.067Z,0.50
2018-12-21T14:07:34.591Z,0.63
2018-12-21T14:10:02.187Z,0.70
2018-12-21T14:12:29.643Z,0.70
2018-12-21T14:14:57.103Z,0.40
2018-12-21T14:17:24.545Z,0.60
2018-12-21T14:19:51.998Z,0.60
2018-12-21T14:22:19.495Z,0.60
2018-12-21T14:24:47.002Z,0.70
2018-12-21T14:27:14.460Z,0.70
2018-12-21T14:29:41.931Z,0.80
2018-12-21T14:32:09.428Z,0.80
2018-12-21T14:34:36.896Z,0.60
2018-12-21T14:37:04.472Z,1.37
2018-12-21T14:39:31.960Z,1.33
2018-12-21T14:41:59.432Z,0.63
2018-12-21T14:44:26.868Z,0.50
2018-12-21T14:46:54.350Z,0.80
2018-12-21T14:49:21.850Z,0.77
2018-12-21T14:51:49.348Z,0.80
2018-12-21T14:54:16.833Z,0.90
2018-12-21T14:56:44.484Z,1.00
2018-12-21T14:59:11.972Z,0.90
2018-12-21T15:01:39.484Z,1.10
2018-12-21T15:04:07.069Z,1.13
2018-12-21T15:06:34.632Z,1.10
2018-12-21T15:09:03.276Z,1.03
2018-12-21T15:11:30.790Z,0.90
2018-12-21T15:13:58.218Z,1.00
2018-12-21T15:16:25.775Z,1.00
2018-12-21T15:18:53.296Z,1.00
2018-12-21T15:21:20.808Z,1.20
2018-12-21T15:23:48.269Z,1.00
2018-12-21T15:26:15.729Z,0.90
2018-12-21T15:28:43.187Z,1.50
2018-12-21T15:31:10.689Z,1.20
2018-12-21T15:33:38.155Z,1.50
2018-12-21T15:36:05.716Z,1.40
2018-12-21T15:38:33.234Z,1.87
2018-12-21T15:41:00.858Z,1.93
2018-12-21T15:43:28.307Z,2.40
2018-12-21T15:45:55.783Z,2.13
2018-12-21T15:48:23.316Z,2.87
2018-12-21T15:50:51.036Z,3.83
2018-12-21T15:53:18.523Z,3.50
2018-12-21T15:55:54.592Z,3.60
2018-12-21T15:58:15.570Z,3.13
2018-12-21T16:00:43.063Z,3.13
2018-12-21T16:03:10.487Z,2.33
2018-12-21T16:05:37.975Z,2.90
2018-12-21T16:08:05.452Z,3.13
2018-12-21T16:10:32.915Z,3.10
2018-12-21T16:13:00.391Z,3.00
2018-12-21T16:15:27.827Z,4.50
2018-12-21T16:17:55.324Z,3.63
2018-12-21T16:20:22.800Z,3.53
2018-12-21T16:22:50.226Z,3.87
2018-12-21T16:25:17.711Z,4.57
2018-12-21T16:27:45.723Z,3.50
2018-12-21T16:30:13.203Z,4.20
2018-12-21T16:32:40.664Z,4.13
2018-12-21T16:35:08.251Z,4.27
2018-12-21T16:37:35.772Z,3.90
2018-12-21T16:40:04.055Z,4.43
2018-12-21T16:42:31.511Z,4.60
2018-12-21T16:44:58.994Z,4.37
2018-12-21T16:47:27.071Z,4.23
2018-12-21T16:49:54.519Z,4.23
2018-12-21T16:52:22.087Z,4.23
2018-12-21T16:54:49.597Z,3.87
2018-12-21T16:57:23.735Z,3.87
2018-12-21T16:59:51.209Z,3.47
2018-12-21T17:02:18.683Z,3.80
2018-12-21T17:04:46.165Z,5.10
2018-12-21T17:07:13.639Z,3.77
2018-12-21T17:09:41.163Z,4.87
2018-12-21T17:12:08.685Z,4.77
2018-12-21T17:14:36.191Z,5.10
2018-12-21T17:17:05.057Z,4.87
2018-12-21T17:19:32.730Z,5.23
2018-12-21T17:22:00.439Z,4.67
2018-12-21T17:24:27.867Z,4.83
2018-12-21T17:26:55.323Z,5.30
2018-12-21T17:29:22.787Z,4.37
2018-12-21T17:31:50.216Z,5.17
2018-12-21T17:34:17.721Z,5.33
2018-12-21T17:36:45.279Z,5.67
2018-12-21T17:39:12.709Z,5.67
2018-12-21T17:41:40.277Z,4.73
2018-12-21T17:44:07.753Z,6.10
2018-12-21T17:46:35.243Z,5.33
2018-12-21T17:49:03.239Z,4.80
2018-12-21T17:51:30.711Z,5.87
2018-12-21T17:53:58.197Z,4.77
2018-12-21T17:56:29.822Z,6.13
2018-12-21T17:58:55.266Z,5.57
2018-12-21T18:01:23.595Z,5.50
2018-12-21T18:03:58.031Z,4.67
2018-12-21T18:06:25.543Z,4.67
2018-12-21T18:08:52.979Z,5.70
2018-12-21T18:11:20.459Z,5.13
2018-12-21T18:13:48.403Z,4.50
2018-12-21T18:16:15.890Z,4.93
2018-12-21T18:18:43.343Z,5.63
2018-12-21T18:21:10.869Z,5.93
2018-12-21T18:23:39.203Z,6.10
2018-12-21T18:26:13.349Z,5.70
2018-12-21T18:28:40.989Z,5.57
2018-12-21T18:31:23.331Z,6.40
2018-12-21T18:33:51.162Z,5.90
2018-12-21T18:36:18.679Z,6.37
2018-12-21T18:38:46.233Z,5.07
2018-12-21T18:41:13.736Z,5.77
2018-12-21T18:43:41.322Z,6.27
2018-12-21T18:46:08.801Z,5.90
2018-12-21T18:48:36.267Z,5.00
2018-12-21T18:51:03.711Z,5.27
2018-12-21T18:53:31.196Z,5.90
2018-12-21T18:55:59.103Z,6.57
2018-12-21T18:58:26.568Z,6.30
2018-12-21T19:00:54.079Z,5.83
2018-12-21T19:03:21.795Z,6.00
2018-12-21T19:05:49.347Z,5.33
2018-12-21T19:08:16.807Z,6.23
2018-12-21T19:10:44.347Z,5.97
2018-12-21T19:13:11.868Z,5.87
2018-12-21T19:15:39.360Z,6.13
2018-12-21T19:18:06.968Z,6.63
2018-12-21T19:20:34.491Z,5.87
2018-12-21T19:23:02.035Z,6.13
2018-12-21T19:25:29.538Z,5.57
2018-12-21T19:27:57.016Z,6.20
2018-12-21T19:30:25.204Z,5.73
2018-12-21T19:32:52.973Z,6.20
2018-12-21T19:35:27.455Z,6.20
2018-12-21T19:37:49.980Z,6.03
2018-12-21T19:40:17.505Z,6.93
2018-12-21T19:42:45.028Z,6.77
2018-12-21T19:45:13.553Z,5.17
2018-12-21T19:47:41.148Z,5.80
2018-12-21T19:50:09.779Z,5.40
2018-12-21T19:52:37.326Z,5.80
2018-12-21T19:56:14.166Z,7.10
2018-12-21T19:58:41.653Z,5.43
2018-12-21T20:01:09.143Z,6.20
2018-12-21T20:03:36.648Z,6.10
2018-12-21T20:06:04.219Z,6.13
2018-12-21T20:08:32.027Z,6.73
2018-12-21T20:10:59.594Z,6.30
2018-12-21T20:13:27.071Z,6.93
2018-12-21T20:15:54.569Z,6.03
2018-12-21T20:18:22.023Z,6.50
2018-12-21T20:20:49.510Z,6.70
2018-12-21T20:23:17.034Z,5.73
2018-12-21T20:25:44.835Z,6.67
2018-12-21T20:28:12.474Z,6.50
2018-12-21T20:30:39.998Z,6.63
2018-12-21T20:33:07.521Z,6.33
2018-12-21T20:35:35.249Z,6.93
2018-12-21T20:38:03.197Z,6.67
2018-12-21T20:40:30.729Z,5.90
2018-12-21T20:42:58.212Z,6.20
2018-12-21T20:45:25.691Z,6.23
2018-12-21T20:47:53.182Z,6.17
2018-12-21T20:50:20.720Z,6.33
2018-12-21T20:52:48.426Z,6.77
2018-12-21T20:55:16.055Z,7.17
2018-12-21T20:57:46.195Z,6.87
2018-12-21T21:00:15.725Z,6.90
2018-12-21T21:02:43.195Z,6.47
2018-12-21T21:05:10.695Z,6.17
2018-12-21T21:07:38.171Z,6.40
2018-12-21T21:10:09.028Z,6.90
2018-12-21T21:12:36.550Z,6.57
2018-12-21T21:15:05.779Z,5.43
2018-12-21T21:17:33.333Z,6.37
2018-12-21T21:20:00.717Z,7.93
2018-12-21T21:22:28.300Z,7.27
2018-12-21T21:24:55.816Z,7.07
2018-12-21T21:27:30.382Z,7.20
2018-12-21T21:29:52.814Z,6.60
2018-12-21T21:32:20.432Z,6.03
2018-12-21T21:34:47.977Z,6.80
2018-12-21T21:37:15.616Z,6.53
2018-12-21T21:39:44.054Z,6.83
2018-12-21T21:42:12.060Z,6.53
2018-12-21T21:44:39.868Z,6.90
2018-12-21T21:47:07.382Z,6.90
2018-12-21T21:49:34.888Z,7.37
2018-12-21T21:52:02.609Z,6.43
2018-12-21T21:54:30.123Z,5.90
2018-12-21T21:57:04.322Z,7.57
2018-12-21T21:59:31.861Z,7.23
2018-12-21T22:01:59.488Z,7.20
2018-12-21T22:04:27.065Z,6.23
2018-12-21T22:06:54.563Z,6.00
2018-12-21T22:09:22.038Z,6.40
2018-12-21T22:11:49.529Z,7.17
2018-12-21T22:14:17.012Z,5.90
2018-12-21T22:16:44.660Z,6.30
2018-12-21T22:19:12.215Z,6.73
2018-12-21T22:21:39.708Z,6.87
2018-12-21T22:24:07.126Z,6.73
2018-12-21T22:26:34.665Z,7.07
2018-12-21T22:29:02.149Z,6.67
2018-12-21T22:31:29.540Z,6.20
2018-12-21T22:33:57.053Z,6.93
2018-12-21T22:36:24.865Z,6.80
2018-12-21T22:38:52.393Z,6.27
2018-12-21T22:41:19.927Z,6.60
2018-12-21T22:43:47.467Z,6.50
2018-12-21T22:48:39.667Z,6.47
2018-12-21T22:51:07.175Z,6.80
2018-12-21T22:53:34.672Z,6.37
2018-12-21T22:56:02.200Z,6.73
2018-12-21T22:58:29.729Z,5.87
2018-12-21T23:00:57.353Z,5.67
2018-12-21T23:03:24.837Z,6.40
2018-12-21T23:05:52.198Z,6.27
2018-12-21T23:08:20.033Z,6.47
2018-12-21T23:10:47.536Z,6.60
2018-12-21T23:13:15.049Z,6.20
2018-12-21T23:15:42.585Z,5.90
2018-12-21T23:18:10.105Z,6.03
2018-12-21T23:20:37.580Z,6.07
2018-12-21T23:23:05.077Z,6.80
2018-12-21T23:25:32.547Z,6.33
2018-12-21T23:28:04.921Z,6.53
2018-12-21T23:30:29.598Z,6.47
2018-12-21T23:32:57.078Z,5.67
2018-12-21T23:35:24.571Z,7.27
2018-12-21T23:37:52.057Z,6.87
2018-12-21T23:40:19.571Z,6.40
2018-12-21T23:42:47.053Z,5.87
2018-12-21T23:45:14.535Z,6.53
2018-12-21T23:47:41.997Z,5.80
2018-12-21T23:50:09.523Z,6.37
2018-12-21T23:52:36.994Z,6.77
2018-12-21T23:55:05.249Z,6.47
2018-12-21T23:57:32.729Z,7.27
